createdAt,value
2018-09-29T00:00:25.150Z,8.38
2018-09-29T00:01:25.143Z,8.33
2018-09-29T00:02:25.137Z,8.26
2018-09-29T00:03:25.130Z,8.26
2018-09-29T00:04:25.123Z,8.30
2018-09-29T00:05:25.124Z,8.28
2018-09-29T00:06:25.112Z,8.28
2018-09-29T00:07:25.103Z,8.16
2018-09-29T00:08:25.097Z,8.16
2018-09-29T00:09:25.092Z,8.22
2018-09-29T00:10:25.084Z,8.23
2018-09-29T00:11:25.076Z,8.16
2018-09-29T00:12:25.073Z,8.10
2018-09-29T00:13:25.063Z,8.12
2018-09-29T00:14:25.058Z,8.11
2018-09-29T00:15:25.049Z,8.10
2018-09-29T00:16:25.065Z,8.11
2018-09-29T00:17:25.036Z,8.10
2018-09-29T00:18:25.032Z,8.15
2018-09-29T00:19:25.024Z,8.10
2018-09-29T00:20:25.018Z,8.15
2018-09-29T00:21:25.010Z,8.10
2018-09-29T00:22:25.009Z,8.10
2018-09-29T00:23:24.996Z,8.05
2018-09-29T00:24:24.992Z,8.11
2018-09-29T00:25:25.057Z,8.10
2018-09-29T00:26:24.981Z,8.11
2018-09-29T00:27:24.970Z,8.12
2018-09-29T00:28:24.965Z,8.10
2018-09-29T00:29:24.959Z,7.98
2018-09-29T00:30:24.952Z,8.05
2018-09-29T00:31:24.944Z,8.04
2018-09-29T00:32:24.941Z,8.08
2018-09-29T00:33:24.931Z,8.00
2018-09-29T00:34:24.952Z,8.00
2018-09-29T00:35:24.920Z,7.98
2018-09-29T00:36:24.914Z,8.02
2018-09-29T00:37:24.904Z,7.89
2018-09-29T00:38:24.899Z,7.90
2018-09-29T00:39:24.892Z,7.90
2018-09-29T00:40:24.886Z,7.95
2018-09-29T00:41:24.877Z,7.82
2018-09-29T00:42:24.942Z,7.77
2018-09-29T00:43:24.864Z,7.82
2018-09-29T00:44:24.861Z,7.82
2018-09-29T00:45:24.851Z,7.87
2018-09-29T00:46:24.850Z,7.75
2018-09-29T00:47:24.838Z,7.82
2018-09-29T00:48:24.833Z,7.82
2018-09-29T00:49:24.824Z,7.77
2018-09-29T00:50:24.822Z,7.72
2018-09-29T00:51:24.811Z,7.77
2018-09-29T00:52:24.806Z,7.72
2018-09-29T00:53:24.798Z,7.71
2018-09-29T00:54:24.793Z,7.75
2018-09-29T00:55:24.785Z,7.72
2018-09-29T00:56:24.779Z,7.72
2018-09-29T00:57:24.770Z,7.67
2018-09-29T00:58:24.768Z,7.64
2018-09-29T00:59:24.759Z,7.72
2018-09-29T01:00:24.753Z,7.60
2018-09-29T01:01:24.744Z,7.63
2018-09-29T01:02:24.740Z,7.63
2018-09-29T01:03:24.731Z,7.68
2018-09-29T01:04:24.728Z,7.68
2018-09-29T01:05:24.717Z,7.63
2018-09-29T01:06:24.717Z,7.64
2018-09-29T01:07:24.704Z,7.64
2018-09-29T01:08:24.698Z,7.60
2018-09-29T01:09:24.690Z,7.64
2018-09-29T01:10:24.686Z,7.52
2018-09-29T01:11:24.678Z,7.57
2018-09-29T01:12:24.671Z,7.53
2018-09-29T01:13:24.663Z,7.58
2018-09-29T01:14:24.699Z,7.57
2018-09-29T01:15:24.650Z,7.50
2018-09-29T01:16:24.644Z,7.55
2018-09-29T01:17:24.635Z,7.46
2018-09-29T01:18:24.633Z,7.46
2018-09-29T01:19:24.623Z,7.45
2018-09-29T01:20:24.616Z,7.42
2018-09-29T01:21:24.608Z,7.39
2018-09-29T01:22:24.605Z,7.31
2018-09-29T01:23:24.594Z,7.32
2018-09-29T01:24:24.589Z,7.32
2018-09-29T01:25:24.581Z,7.27
2018-09-29T01:26:24.576Z,7.31
2018-09-29T01:27:24.567Z,7.30
2018-09-29T01:28:24.563Z,7.27
2018-09-29T01:29:24.552Z,7.28
2018-09-29T01:30:24.548Z,7.30
2018-09-29T01:31:24.540Z,7.30
2018-09-29T01:32:24.533Z,7.32
2018-09-29T01:33:24.525Z,7.28
2018-09-29T01:34:24.521Z,7.35
2018-09-29T01:35:24.512Z,7.35
2018-09-29T01:36:24.506Z,7.24
2018-09-29T01:37:24.496Z,7.34
2018-09-29T01:38:24.493Z,7.30
2018-09-29T01:39:24.484Z,7.28
2018-09-29T01:40:24.480Z,7.30
2018-09-29T01:41:24.477Z,7.37
2018-09-29T01:42:24.479Z,7.28
2018-09-29T01:43:24.456Z,7.28
2018-09-29T01:44:24.451Z,7.28
2018-09-29T01:45:24.441Z,7.21
2018-09-29T01:46:24.436Z,7.21
2018-09-29T01:47:24.431Z,7.23
2018-09-29T01:48:24.424Z,7.15
2018-09-29T01:49:24.422Z,7.06
2018-09-29T01:50:24.408Z,7.10
2018-09-29T01:51:24.399Z,7.09
2018-09-29T01:52:24.393Z,7.12
2018-09-29T01:53:24.384Z,7.03
2018-09-29T01:54:24.380Z,7.09
2018-09-29T01:55:24.670Z,6.98
2018-09-29T01:56:24.365Z,7.06
2018-09-29T01:57:24.355Z,7.03
2018-09-29T01:58:24.352Z,6.92
2018-09-29T01:59:24.341Z,6.98
2018-09-29T02:00:24.336Z,6.89
2018-09-29T02:01:24.327Z,6.97
2018-09-29T02:02:24.322Z,6.94
2018-09-29T02:03:24.313Z,6.99
2018-09-29T02:04:24.308Z,7.03
2018-09-29T02:05:24.300Z,6.97
2018-09-29T02:06:24.319Z,6.92
2018-09-29T02:07:24.284Z,6.94
2018-09-29T02:08:24.278Z,6.95
2018-09-29T02:09:24.269Z,6.95
2018-09-29T02:10:24.264Z,6.97
2018-09-29T02:11:24.255Z,6.88
2018-09-29T02:12:24.251Z,6.92
2018-09-29T02:13:24.240Z,6.98
2018-09-29T02:14:24.235Z,6.91
2018-09-29T02:15:24.229Z,6.94
2018-09-29T02:16:24.220Z,6.88
2018-09-29T02:17:24.211Z,6.85
2018-09-29T02:18:24.210Z,6.92
2018-09-29T02:19:24.197Z,6.91
2018-09-29T02:20:24.190Z,6.89
2018-09-29T02:21:24.182Z,6.85
2018-09-29T02:22:24.176Z,6.81
2018-09-29T02:23:24.167Z,6.80
2018-09-29T02:24:24.162Z,6.77
2018-09-29T02:25:24.154Z,6.76
2018-09-29T02:26:24.148Z,6.80
2018-09-29T02:27:24.139Z,6.79
2018-09-29T02:28:24.132Z,6.79
2018-09-29T02:29:24.124Z,6.71
2018-09-29T02:30:24.119Z,6.70
2018-09-29T02:31:24.111Z,6.77
2018-09-29T02:32:24.104Z,6.76
2018-09-29T02:33:24.093Z,6.71
2018-09-29T02:34:24.090Z,6.71
2018-09-29T02:35:24.079Z,6.66
2018-09-29T02:36:24.077Z,6.64
2018-09-29T02:37:24.064Z,6.64
2018-09-29T02:38:24.145Z,6.66
2018-09-29T02:39:24.051Z,6.69
2018-09-29T02:40:24.044Z,6.73
2018-09-29T02:41:24.035Z,6.71
2018-09-29T02:42:24.031Z,6.69
2018-09-29T02:43:24.023Z,6.66
2018-09-29T02:44:24.019Z,6.62
2018-09-29T02:45:24.009Z,6.70
2018-09-29T02:46:23.999Z,6.59
2018-09-29T02:47:23.992Z,6.49
2018-09-29T02:48:23.991Z,6.61
2018-09-29T02:49:23.975Z,6.59
2018-09-29T02:50:23.979Z,6.49
2018-09-29T02:51:23.965Z,6.55
2018-09-29T02:52:23.954Z,6.54
2018-09-29T02:53:23.947Z,6.62
2018-09-29T02:54:23.943Z,6.54
2018-09-29T02:55:23.931Z,6.54
2018-09-29T02:56:23.924Z,6.54
2018-09-29T02:57:23.915Z,6.46
2018-09-29T02:58:23.911Z,6.51
2018-09-29T02:59:23.899Z,6.44
2018-09-29T03:00:23.894Z,6.43
2018-09-29T03:01:23.885Z,6.37
2018-09-29T03:02:23.878Z,6.34
2018-09-29T03:03:23.868Z,6.40
2018-09-29T03:04:23.862Z,6.38
2018-09-29T03:05:23.853Z,6.36
2018-09-29T03:06:23.849Z,6.36
2018-09-29T03:07:23.839Z,6.41
2018-09-29T03:08:23.834Z,6.25
2018-09-29T03:09:23.821Z,6.31
2018-09-29T03:10:23.816Z,6.37
2018-09-29T03:11:23.806Z,6.22
2018-09-29T03:12:23.800Z,6.30
2018-09-29T03:13:23.792Z,6.40
2018-09-29T03:14:23.788Z,6.41
2018-09-29T03:15:23.776Z,6.38
2018-09-29T03:16:23.770Z,6.33
2018-09-29T03:17:23.818Z,6.37
2018-09-29T03:18:23.755Z,6.33
2018-09-29T03:19:23.849Z,6.37
2018-09-29T03:20:23.739Z,6.30
2018-09-29T03:21:23.729Z,6.36
2018-09-29T03:22:23.724Z,6.38
2018-09-29T03:23:23.714Z,6.36
2018-09-29T03:24:23.709Z,6.34
2018-09-29T03:25:23.699Z,6.27
2018-09-29T03:26:23.693Z,6.33
2018-09-29T03:27:23.683Z,6.37
2018-09-29T03:28:23.677Z,6.25
2018-09-29T03:29:23.668Z,6.28
2018-09-29T03:30:23.663Z,6.15
2018-09-29T03:31:23.702Z,6.25
2018-09-29T03:32:23.646Z,6.27
2018-09-29T03:33:23.638Z,6.18
2018-09-29T03:34:23.632Z,6.28
2018-09-29T03:35:23.622Z,6.18
2018-09-29T03:36:23.619Z,6.18
2018-09-29T03:37:23.606Z,6.18
2018-09-29T03:38:23.606Z,6.17
2018-09-29T03:39:23.606Z,6.17
2018-09-29T03:40:23.584Z,6.17
2018-09-29T03:41:23.575Z,6.09
2018-09-29T03:42:23.569Z,6.08
2018-09-29T03:43:23.559Z,6.06
2018-09-29T03:44:23.553Z,6.01
2018-09-29T03:45:23.551Z,6.12
2018-09-29T03:46:23.554Z,6.09
2018-09-29T03:47:23.528Z,6.06
2018-09-29T03:48:23.521Z,6.12
2018-09-29T03:49:23.617Z,6.22
2018-09-29T03:50:23.557Z,6.15
2018-09-29T03:51:23.497Z,6.06
2018-09-29T03:52:23.491Z,6.08
2018-09-29T03:53:23.509Z,6.15
2018-09-29T03:54:23.475Z,6.12
2018-09-29T03:55:23.468Z,6.11
2018-09-29T03:56:23.457Z,6.17
2018-09-29T03:57:23.452Z,6.17
2018-09-29T03:58:23.444Z,6.11
2018-09-29T03:59:23.438Z,6.19
2018-09-29T04:00:23.425Z,6.09
2018-09-29T04:01:23.422Z,6.12
2018-09-29T04:02:23.414Z,6.06
2018-09-29T04:03:23.406Z,6.11
2018-09-29T04:04:23.395Z,6.06
2018-09-29T04:05:23.390Z,6.06
2018-09-29T04:06:23.379Z,6.11
2018-09-29T04:07:23.384Z,6.04
2018-09-29T04:08:23.363Z,6.11
2018-09-29T04:09:23.358Z,6.04
2018-09-29T04:10:23.351Z,6.15
2018-09-29T04:11:23.342Z,6.03
2018-09-29T04:12:23.332Z,6.12
2018-09-29T04:13:23.327Z,6.08
2018-09-29T04:14:23.316Z,6.11
2018-09-29T04:15:23.311Z,6.11
2018-09-29T04:16:23.367Z,6.12
2018-09-29T04:17:23.295Z,6.09
2018-09-29T04:18:23.285Z,6.06
2018-09-29T04:19:23.530Z,6.09
2018-09-29T04:20:23.273Z,6.04
2018-09-29T04:21:23.264Z,6.09
2018-09-29T04:22:23.255Z,6.09
2018-09-29T04:23:23.249Z,6.06
2018-09-29T04:24:23.241Z,6.11
2018-09-29T04:25:23.290Z,6.09
2018-09-29T04:26:23.222Z,6.06
2018-09-29T04:27:23.217Z,6.12
2018-09-29T04:28:23.206Z,6.09
2018-09-29T04:29:23.202Z,6.09
2018-09-29T04:30:23.191Z,6.15
2018-09-29T04:31:23.186Z,6.25
2018-09-29T04:32:23.178Z,6.25
2018-09-29T04:33:23.169Z,6.25
2018-09-29T04:34:23.159Z,6.21
2018-09-29T04:35:23.154Z,6.21
2018-09-29T04:36:23.143Z,6.17
2018-09-29T04:37:23.137Z,6.18
2018-09-29T04:38:23.132Z,6.12
2018-09-29T04:39:23.123Z,6.21
2018-09-29T04:40:23.113Z,6.21
2018-09-29T04:41:23.106Z,6.19
2018-09-29T04:42:23.100Z,6.12
2018-09-29T04:43:23.091Z,6.08
2018-09-29T04:44:23.080Z,6.04
2018-09-29T04:45:23.075Z,6.08
2018-09-29T04:46:23.065Z,6.12
2018-09-29T04:47:23.064Z,6.08
2018-09-29T04:48:23.121Z,6.06
2018-09-29T04:49:23.048Z,6.12
2018-09-29T04:50:23.035Z,6.09
2018-09-29T04:51:23.028Z,6.08
2018-09-29T04:52:23.017Z,6.15
2018-09-29T04:53:23.013Z,6.18
2018-09-29T04:54:23.004Z,6.06
2018-09-29T04:55:22.997Z,6.14
2018-09-29T04:56:22.986Z,6.12
2018-09-29T04:57:22.981Z,6.11
2018-09-29T04:58:22.971Z,6.12
2018-09-29T04:59:22.966Z,6.18
2018-09-29T05:00:22.953Z,6.06
2018-09-29T05:01:22.949Z,6.03
2018-09-29T05:02:22.945Z,6.04
2018-09-29T05:03:22.934Z,6.15
2018-09-29T05:04:22.923Z,6.09
2018-09-29T05:05:22.918Z,6.09
2018-09-29T05:06:22.910Z,6.06
2018-09-29T05:07:22.903Z,6.06
2018-09-29T05:08:22.892Z,6.06
2018-09-29T05:09:22.890Z,6.04
2018-09-29T05:10:22.878Z,6.09
2018-09-29T05:11:22.871Z,6.00
2018-09-29T05:12:22.860Z,5.99
2018-09-29T05:13:22.856Z,6.01
2018-09-29T05:14:22.845Z,6.01
2018-09-29T05:15:22.841Z,6.04
2018-09-29T05:16:22.829Z,6.04
2018-09-29T05:17:22.825Z,6.00
2018-09-29T05:18:22.814Z,5.94
2018-09-29T05:19:22.824Z,5.91
2018-09-29T05:20:22.797Z,5.94
2018-09-29T05:21:22.793Z,5.89
2018-09-29T05:22:22.784Z,5.89
2018-09-29T05:23:22.979Z,5.86
2018-09-29T05:24:22.768Z,5.90
2018-09-29T05:25:22.764Z,5.91
2018-09-29T05:26:22.750Z,5.90
2018-09-29T05:27:22.745Z,5.91
2018-09-29T05:28:22.737Z,5.93
2018-09-29T05:29:22.729Z,5.91
2018-09-29T05:30:22.728Z,5.83
2018-09-29T05:31:22.713Z,6.00
2018-09-29T05:32:22.703Z,6.03
2018-09-29T05:33:22.696Z,6.06
2018-09-29T05:34:22.687Z,6.15
2018-09-29T05:35:22.682Z,6.04
2018-09-29T05:36:22.672Z,6.06
2018-09-29T05:37:22.675Z,6.06
2018-09-29T05:38:22.662Z,6.06
2018-09-29T05:39:22.650Z,6.17
2018-09-29T05:40:22.639Z,6.15
2018-09-29T05:41:22.633Z,6.18
2018-09-29T05:42:22.624Z,6.25
2018-09-29T05:43:22.618Z,6.25
2018-09-29T05:44:22.612Z,6.28
2018-09-29T05:45:22.603Z,6.22
2018-09-29T05:46:22.595Z,6.19
2018-09-29T05:47:22.588Z,6.22
2018-09-29T05:48:22.591Z,6.27
2018-09-29T05:49:22.571Z,6.36
2018-09-29T05:50:22.561Z,6.43
2018-09-29T05:51:22.555Z,6.37
2018-09-29T05:52:22.547Z,6.40
2018-09-29T05:53:22.543Z,6.43
2018-09-29T05:54:22.530Z,6.37
2018-09-29T05:55:22.648Z,6.43
2018-09-29T05:56:22.514Z,6.48
2018-09-29T05:57:22.508Z,6.51
2018-09-29T05:58:22.498Z,6.51
2018-09-29T05:59:22.494Z,6.49
2018-09-29T06:00:22.519Z,6.51
2018-09-29T06:01:22.478Z,6.58
2018-09-29T06:02:22.473Z,6.66
2018-09-29T06:03:22.462Z,6.64
2018-09-29T06:04:22.461Z,6.66
2018-09-29T06:05:22.556Z,6.64
2018-09-29T06:06:22.440Z,6.74
2018-09-29T06:07:22.543Z,6.84
2018-09-29T06:08:22.421Z,6.85
2018-09-29T06:09:22.417Z,6.88
2018-09-29T06:10:22.409Z,6.88
2018-09-29T06:11:22.403Z,6.91
2018-09-29T06:12:22.391Z,6.98
2018-09-29T06:13:22.387Z,6.94
2018-09-29T06:14:22.377Z,6.95
2018-09-29T06:15:22.439Z,6.97
2018-09-29T06:16:22.362Z,7.12
2018-09-29T06:17:22.357Z,7.12
2018-09-29T06:18:22.351Z,7.09
2018-09-29T06:19:22.342Z,7.10
2018-09-29T06:20:22.333Z,7.20
2018-09-29T06:21:22.328Z,7.17
2018-09-29T06:22:22.318Z,7.28
2018-09-29T06:23:22.314Z,7.25
2018-09-29T06:24:22.304Z,7.37
2018-09-29T06:25:22.299Z,7.34
2018-09-29T06:26:22.288Z,7.40
2018-09-29T06:27:22.285Z,7.48
2018-09-29T06:28:22.275Z,7.52
2018-09-29T06:29:22.270Z,7.63
2018-09-29T06:30:22.266Z,7.61
2018-09-29T06:31:22.256Z,7.67
2018-09-29T06:32:22.247Z,7.67
2018-09-29T06:33:22.242Z,7.74
2018-09-29T06:34:22.248Z,7.87
2018-09-29T06:35:22.233Z,7.90
2018-09-29T06:36:22.219Z,7.92
2018-09-29T06:37:22.214Z,7.89
2018-09-29T06:38:22.205Z,8.00
2018-09-29T06:39:22.207Z,8.12
2018-09-29T06:40:22.195Z,8.12
2018-09-29T06:41:22.187Z,8.16
2018-09-29T06:42:22.181Z,8.29
2018-09-29T06:43:22.474Z,8.38
2018-09-29T06:44:22.165Z,8.38
2018-09-29T06:45:22.160Z,8.43
2018-09-29T06:46:22.152Z,8.43
2018-09-29T06:47:22.177Z,8.38
2018-09-29T06:48:22.138Z,8.41
2018-09-29T06:49:22.183Z,8.38
2018-09-29T06:50:22.126Z,8.30
2018-09-29T06:51:22.120Z,8.44
2018-09-29T06:52:22.110Z,8.43
2018-09-29T06:53:22.110Z,8.56
2018-09-29T06:54:22.125Z,8.68
2018-09-29T06:55:22.096Z,8.70
2018-09-29T06:56:22.085Z,8.80
2018-09-29T06:57:22.081Z,8.76
2018-09-29T06:58:22.072Z,8.84
2018-09-29T06:59:22.068Z,8.86
2018-09-29T07:00:22.065Z,8.89
2018-09-29T07:01:22.055Z,8.81
2018-09-29T07:02:22.046Z,8.84
2018-09-29T07:03:22.043Z,8.92
2018-09-29T07:04:22.057Z,9.02
2018-09-29T07:05:22.028Z,9.14
2018-09-29T07:06:22.021Z,9.21
2018-09-29T07:07:22.020Z,9.28
2018-09-29T07:08:22.074Z,9.24
2018-09-29T07:09:22.004Z,9.35
2018-09-29T07:10:22.000Z,9.50
2018-09-29T07:11:21.993Z,9.56
2018-09-29T07:12:22.186Z,9.51
2018-09-29T07:13:21.980Z,9.53
2018-09-29T07:14:21.972Z,9.54
2018-09-29T07:15:21.969Z,9.50
2018-09-29T07:16:21.974Z,9.58
2018-09-29T07:17:21.957Z,9.60
2018-09-29T07:18:21.949Z,9.74
2018-09-29T07:19:21.945Z,9.86
2018-09-29T07:20:21.937Z,9.79
2018-09-29T07:21:21.933Z,9.84
2018-09-29T07:22:21.926Z,10.02
2018-09-29T07:23:21.927Z,10.02
2018-09-29T07:26:47.616Z,10.33
2018-09-29T07:27:50.622Z,10.36
2018-09-29T07:28:47.588Z,10.52
2018-09-29T07:29:47.584Z,10.55
2018-09-29T07:30:47.578Z,10.60
2018-09-29T07:31:47.573Z,10.73
2018-09-29T07:32:47.566Z,10.84
2018-09-29T07:33:47.766Z,10.85
2018-09-29T07:34:47.560Z,10.86
2018-09-29T07:36:29.963Z,10.99
2018-09-29T07:37:29.960Z,10.94
2018-09-29T07:38:29.953Z,11.06
2018-09-29T07:39:32.776Z,11.15
2018-09-29T07:40:29.944Z,11.10
2018-09-29T18:08:07.191Z,12.41
2018-09-29T18:09:07.190Z,12.39
2018-09-29T18:10:07.191Z,12.32
2018-09-29T18:11:07.180Z,12.24
2018-09-29T18:12:07.173Z,12.24
2018-09-29T18:13:07.172Z,12.37
2018-09-29T18:14:09.804Z,12.32
2018-09-29T18:15:07.162Z,12.31
2018-09-29T18:16:07.155Z,12.20
2018-09-29T18:18:39.655Z,12.19
2018-09-29T18:20:39.649Z,12.14
2018-09-29T18:21:39.642Z,12.19
2018-09-29T18:22:39.649Z,12.13
2018-09-29T18:23:39.635Z,12.09
2018-09-29T18:24:39.685Z,12.16
2018-09-29T18:25:39.625Z,12.09
2018-09-29T18:26:39.623Z,12.13
2018-09-29T18:27:39.619Z,12.01
2018-09-29T18:28:39.614Z,12.04
2018-09-29T18:29:39.610Z,12.02
2018-09-29T18:30:39.606Z,11.99
2018-09-29T18:31:39.601Z,12.01
2018-09-29T18:33:39.595Z,11.98
2018-09-29T18:34:39.646Z,11.98
2018-09-29T18:35:39.620Z,11.98
2018-09-29T18:36:39.581Z,11.95
2018-09-29T18:37:39.582Z,12.04
2018-09-29T18:38:39.585Z,12.07
2018-09-29T18:39:39.583Z,11.90
2018-09-29T18:40:39.582Z,11.96
2018-09-29T18:42:40.368Z,11.88
2018-09-29T18:43:39.576Z,11.91
2018-09-29T18:44:42.593Z,11.90
2018-09-29T18:45:39.545Z,11.76
2018-09-29T18:46:39.544Z,11.86
2018-09-29T18:47:39.546Z,11.73
2018-09-29T18:48:42.218Z,11.72
2018-09-29T18:49:39.530Z,11.76
2018-09-29T18:50:39.533Z,11.73
2018-09-29T18:51:39.590Z,11.73
2018-09-29T18:52:39.534Z,11.67
2018-09-29T18:53:39.513Z,11.69
2018-09-29T18:54:39.511Z,11.62
2018-09-29T18:55:39.506Z,11.57
2018-09-29T18:56:39.504Z,11.62
2018-09-29T18:57:39.497Z,11.52
2018-09-29T18:58:39.496Z,11.46
2018-09-29T18:59:39.489Z,11.49
2018-09-29T19:00:39.486Z,11.51
2018-09-29T19:01:39.481Z,11.44
2018-09-29T19:02:39.479Z,11.39
2018-09-29T19:03:39.473Z,11.37
2018-09-29T19:04:39.477Z,11.33
2018-09-29T19:05:39.464Z,11.35
2018-09-29T19:06:39.464Z,11.39
2018-09-29T19:07:39.539Z,11.35
2018-09-29T19:08:39.454Z,11.42
2018-09-29T19:09:39.449Z,11.33
2018-09-29T19:11:39.444Z,11.52
2018-09-29T19:12:39.480Z,11.33
2018-09-29T19:13:39.434Z,11.36
2018-09-29T19:14:39.429Z,11.28
2018-09-29T19:15:39.425Z,11.28
2018-09-29T19:17:39.414Z,11.21
2018-09-29T19:18:39.416Z,11.22
2018-09-29T19:19:39.410Z,11.15
2018-09-29T19:20:39.404Z,11.15
2018-09-29T19:21:39.397Z,11.11
2018-09-29T19:22:39.396Z,11.15
2018-09-29T19:23:39.390Z,11.14
2018-09-29T19:24:39.386Z,11.09
2018-09-29T19:25:39.381Z,11.00
2018-09-29T19:26:39.446Z,10.99
2018-09-29T19:27:39.377Z,10.91
2018-09-29T19:28:39.370Z,10.96
2018-09-29T19:29:39.363Z,11.02
2018-09-29T19:30:39.363Z,11.02
2018-09-29T19:31:39.355Z,10.91
2018-09-29T19:32:39.352Z,10.88
2018-09-29T19:33:39.424Z,10.88
2018-09-29T19:34:39.344Z,10.92
2018-09-29T19:35:39.337Z,10.91
2018-09-29T19:36:39.334Z,10.94
2018-09-29T19:37:39.327Z,10.94
2018-09-29T19:38:39.326Z,10.94
2018-09-29T19:39:39.348Z,10.94
2018-09-29T19:40:39.317Z,10.96
2018-09-29T19:41:39.310Z,10.88
2018-09-29T19:42:39.308Z,10.92
2018-09-29T19:43:39.304Z,10.94
2018-09-29T19:44:39.303Z,10.96
2018-09-29T19:45:39.357Z,11.02
2018-09-29T19:46:39.290Z,11.00
2018-09-29T19:47:39.283Z,10.96
2018-09-29T19:48:39.280Z,11.00
2018-09-29T19:49:39.274Z,11.03
2018-09-29T19:50:39.272Z,10.97
2018-09-29T19:51:39.265Z,10.92
2018-09-29T19:52:39.263Z,10.94
2018-09-29T19:53:39.256Z,10.94
2018-09-29T19:54:39.256Z,10.84
2018-09-29T19:55:39.252Z,10.92
2018-09-29T19:56:39.247Z,10.81
2018-09-29T19:57:39.238Z,10.78
2018-09-29T19:58:39.311Z,10.84
2018-09-29T19:59:39.229Z,10.84
2018-09-29T20:00:39.225Z,10.78
2018-09-29T20:01:39.219Z,10.84
2018-09-29T20:02:39.217Z,10.78
2018-09-29T20:03:39.219Z,10.73
2018-09-29T20:04:39.207Z,10.74
2018-09-29T20:05:39.211Z,10.76
2018-09-29T20:06:39.198Z,10.68
2018-09-29T20:07:39.192Z,10.63
2018-09-29T20:08:39.188Z,10.68
2018-09-29T20:09:39.182Z,10.63
2018-09-29T20:10:39.180Z,10.63
2018-09-29T20:11:39.173Z,10.61
2018-09-29T20:12:39.170Z,10.64
2018-09-29T20:13:39.162Z,10.60
2018-09-29T20:14:39.161Z,10.63
2018-09-29T20:15:39.156Z,10.61
2018-09-29T20:16:39.268Z,10.67
2018-09-29T20:17:39.148Z,10.55
2018-09-29T20:18:39.143Z,10.59
2018-09-29T20:19:39.136Z,10.55
2018-09-29T20:20:39.133Z,10.59
2018-09-29T20:21:39.126Z,10.52
2018-09-29T20:22:39.125Z,10.44
2018-09-29T20:23:39.117Z,10.52
2018-09-29T20:24:39.116Z,10.56
2018-09-29T20:25:39.109Z,10.45
2018-09-29T20:26:39.105Z,10.53
2018-09-29T20:27:39.098Z,10.45
2018-09-29T20:28:39.095Z,10.45
2018-09-29T20:29:39.090Z,10.42
2018-09-29T20:30:39.261Z,10.41
2018-09-29T20:31:39.079Z,10.42
2018-09-29T20:32:39.075Z,10.36
2018-09-29T20:33:39.069Z,10.38
2018-09-29T20:34:39.066Z,10.44
2018-09-29T20:35:39.060Z,10.34
2018-09-29T20:36:39.056Z,10.26
2018-09-29T20:37:39.050Z,10.30
2018-09-29T20:38:39.047Z,10.29
2018-09-29T20:39:39.040Z,10.29
2018-09-29T20:40:39.036Z,10.22
2018-09-29T20:41:39.030Z,10.25
2018-09-29T20:42:39.028Z,10.18
2018-09-29T20:43:39.021Z,10.12
2018-09-29T20:44:39.017Z,10.12
2018-09-29T20:45:39.010Z,10.09
2018-09-29T20:46:39.007Z,10.17
2018-09-29T20:47:39.000Z,10.14
2018-09-29T20:48:38.997Z,10.14
2018-09-29T20:49:38.991Z,10.02
2018-09-29T20:50:39.063Z,10.09
2018-09-29T20:51:38.981Z,10.05
2018-09-29T20:52:38.977Z,10.07
2018-09-29T20:53:38.970Z,10.07
2018-09-29T20:54:38.968Z,10.01
2018-09-29T20:55:38.960Z,10.04
2018-09-29T20:56:38.957Z,10.08
2018-09-29T20:57:38.950Z,10.02
2018-09-29T20:58:38.949Z,10.01
2018-09-29T20:59:38.940Z,9.96
2018-09-29T21:00:38.940Z,9.96
2018-09-29T21:01:38.930Z,10.02
2018-09-29T21:02:38.928Z,9.94
2018-09-29T21:03:38.921Z,9.93
2018-09-29T21:04:38.917Z,9.87
2018-09-29T21:05:38.910Z,9.89
2018-09-29T21:06:38.907Z,9.93
2018-09-29T21:07:38.901Z,9.89
2018-09-29T21:08:38.896Z,9.87
2018-09-29T21:09:38.892Z,9.89
2018-09-29T21:10:38.886Z,9.84
2018-09-29T21:11:38.880Z,9.83
2018-09-29T21:12:38.879Z,9.84
2018-09-29T21:13:38.929Z,9.93
2018-09-29T21:14:38.866Z,9.86
2018-09-29T21:15:38.859Z,9.87
2018-09-29T21:16:38.855Z,9.81
2018-09-29T21:17:38.848Z,9.86
2018-09-29T21:18:38.845Z,9.78
2018-09-29T21:19:38.838Z,9.76
2018-09-29T21:20:38.834Z,9.74
2018-09-29T21:21:38.826Z,9.78
2018-09-29T21:22:38.882Z,9.76
2018-09-29T21:23:38.817Z,9.79
2018-09-29T21:24:38.813Z,9.78
2018-09-29T21:25:38.806Z,9.75
2018-09-29T21:26:38.803Z,9.78
2018-09-29T21:27:38.796Z,9.75
2018-09-29T21:28:38.792Z,9.75
2018-09-29T21:29:38.785Z,9.76
2018-09-29T21:30:38.782Z,9.75
2018-09-29T21:31:38.773Z,9.75
2018-09-29T21:32:38.776Z,9.78
2018-09-29T21:33:38.773Z,9.79
2018-09-29T21:34:38.775Z,9.81
2018-09-29T21:35:38.756Z,9.75
2018-09-29T21:39:26.142Z,9.74
2018-09-29T21:40:26.139Z,9.74
2018-09-29T21:41:26.136Z,9.65
2018-09-29T21:42:26.208Z,9.61
2018-09-29T21:43:26.121Z,9.64
2018-09-29T21:44:26.117Z,9.61
2018-09-29T21:45:26.110Z,9.57
2018-09-29T21:46:26.107Z,9.61
2018-09-29T21:47:26.100Z,9.56
2018-09-29T21:48:26.096Z,9.60
2018-09-29T21:49:26.089Z,9.61
2018-09-29T21:50:26.086Z,9.53
2018-09-29T21:51:26.078Z,9.48
2018-09-29T21:52:26.260Z,9.51
2018-09-29T21:53:26.152Z,9.56
2018-09-29T21:54:26.065Z,9.40
2018-09-29T21:55:26.060Z,9.40
2018-09-29T21:56:26.053Z,9.36
2018-09-29T21:57:26.045Z,9.50
2018-09-29T21:58:26.042Z,9.33
2018-09-29T21:59:26.035Z,9.47
2018-09-29T22:00:26.031Z,9.48
2018-09-29T22:01:26.026Z,9.46
2018-09-29T22:02:26.021Z,9.39
2018-09-29T22:03:26.013Z,9.36
2018-09-29T22:04:26.013Z,9.40
2018-09-29T22:05:26.002Z,9.39
2018-09-29T22:06:26.001Z,9.40
2018-09-29T22:07:25.991Z,9.36
2018-09-29T22:08:25.987Z,9.24
2018-09-29T22:09:25.983Z,9.28
2018-09-29T22:10:25.977Z,9.29
2018-09-29T22:11:25.970Z,9.29
2018-09-29T22:12:25.965Z,9.29
2018-09-29T22:13:25.958Z,9.29
2018-09-29T22:14:25.955Z,9.21
2018-09-29T22:15:25.948Z,9.26
2018-09-29T22:16:25.945Z,9.15
2018-09-29T22:17:25.935Z,9.13
2018-09-29T22:18:25.938Z,9.18
2018-09-29T22:19:25.924Z,9.14
2018-09-29T22:20:25.920Z,9.15
2018-09-29T22:21:25.914Z,9.14
2018-09-29T22:22:25.915Z,9.20
2018-09-29T22:23:25.902Z,9.24
2018-09-29T22:24:25.899Z,9.13
2018-09-29T22:25:25.962Z,9.10
2018-09-29T22:26:25.887Z,8.98
2018-09-29T22:27:25.878Z,9.14
2018-09-29T22:28:25.876Z,9.13
2018-09-29T22:29:25.870Z,9.08
2018-09-29T22:30:25.872Z,9.05
2018-09-29T22:31:25.857Z,9.04
2018-09-29T22:32:25.853Z,9.08
2018-09-29T22:33:25.845Z,9.01
2018-09-29T22:34:25.841Z,9.01
2018-09-29T22:35:25.841Z,9.05
2018-09-29T22:36:25.842Z,8.96
2018-09-29T22:37:25.837Z,8.96
2018-09-29T22:38:25.857Z,8.96
2018-09-29T22:39:25.811Z,8.94
2018-09-29T22:40:25.806Z,8.95
2018-09-29T22:41:25.800Z,8.94
2018-09-29T22:42:25.866Z,8.98
2018-09-29T22:43:25.788Z,8.87
2018-09-29T22:44:25.788Z,8.91
2018-09-29T22:45:25.787Z,8.94
2018-09-29T22:46:25.773Z,8.91
2018-09-29T22:47:25.763Z,8.89
2018-09-29T22:48:25.811Z,8.84
2018-09-29T22:49:25.753Z,8.83
2018-09-29T22:50:25.749Z,8.86
2018-09-29T22:51:25.742Z,8.80
2018-09-29T22:52:25.737Z,8.80
2018-09-29T22:53:25.729Z,8.74
2018-09-29T22:54:25.726Z,8.76
2018-09-29T22:55:25.719Z,8.76
2018-09-29T22:56:25.714Z,8.68
2018-09-29T22:57:25.712Z,8.74
2018-09-29T22:58:25.702Z,8.73
2018-09-29T22:59:25.694Z,8.68
2018-09-29T23:00:25.690Z,8.71
2018-09-29T23:01:25.682Z,8.71
2018-09-29T23:02:25.678Z,8.65
2018-09-29T23:03:25.674Z,8.59
2018-09-29T23:04:25.683Z,8.71
2018-09-29T23:05:25.658Z,8.65
2018-09-29T23:06:25.657Z,8.68
2018-09-29T23:07:25.646Z,8.62
2018-09-29T23:08:25.645Z,8.63
2018-09-29T23:09:25.634Z,8.62
2018-09-29T23:10:25.630Z,8.65
2018-09-29T23:11:25.623Z,8.59
2018-09-29T23:12:25.618Z,8.58
2018-09-29T23:13:25.611Z,8.63
2018-09-29T23:14:25.659Z,8.66
2018-09-29T23:15:25.598Z,8.62
2018-09-29T23:16:25.607Z,8.65
2018-09-29T23:17:25.587Z,8.62
2018-09-29T23:18:25.585Z,8.59
2018-09-29T23:19:25.574Z,8.62
2018-09-29T23:20:25.569Z,8.50
2018-09-29T23:21:25.562Z,8.55
2018-09-29T23:22:25.559Z,8.47
2018-09-29T23:23:25.550Z,8.56
2018-09-29T23:24:25.545Z,8.48
2018-09-29T23:25:25.539Z,8.52
2018-09-29T23:26:25.533Z,8.53
2018-09-29T23:27:25.525Z,8.56
2018-09-29T23:28:25.520Z,8.45
2018-09-29T23:29:25.512Z,8.44
2018-09-29T23:30:25.515Z,8.44
2018-09-29T23:31:25.503Z,8.52
2018-09-29T23:32:25.500Z,8.50
2018-09-29T23:33:25.488Z,8.50
2018-09-29T23:34:25.483Z,8.48
2018-09-29T23:35:25.477Z,8.52
2018-09-29T23:36:25.471Z,8.52
2018-09-29T23:37:25.463Z,8.43
2018-09-29T23:38:25.459Z,8.48
2018-09-29T23:39:25.451Z,8.45
2018-09-29T23:40:25.447Z,8.38
2018-09-29T23:41:25.438Z,8.44
2018-09-29T23:42:25.434Z,8.38
2018-09-29T23:43:25.426Z,8.40
2018-09-29T23:44:25.423Z,8.34
2018-09-29T23:45:25.413Z,8.29
2018-09-29T23:46:25.411Z,8.38
2018-09-29T23:47:25.401Z,8.28
2018-09-29T23:48:25.396Z,8.25
2018-09-29T23:49:25.436Z,8.36
2018-09-29T23:50:25.385Z,8.26
2018-09-29T23:51:25.377Z,8.29